createdAt,value
2023-03-06T00:01:08.048Z,19.50
2023-03-06T00:03:35.263Z,19.50
2023-03-06T00:06:02.683Z,19.70
2023-03-06T00:08:30.200Z,19.80
2023-03-06T00:10:57.740Z,20.30
2023-03-06T00:13:26.866Z,20.40
2023-03-06T00:15:54.095Z,20.40
2023-03-06T00:18:21.270Z,20.40
2023-03-06T00:20:48.414Z,20.50
2023-03-06T00:23:15.470Z,20.60
2023-03-06T00:25:44.193Z,21.00
2023-03-06T00:28:12.531Z,20.90
2023-03-06T00:30:39.732Z,21.00
2023-03-06T00:33:06.878Z,21.00
2023-03-06T00:35:34.020Z,21.10
2023-03-06T00:38:01.161Z,21.00
2023-03-06T00:40:28.267Z,20.90
2023-03-06T00:42:55.484Z,20.80
2023-03-06T00:45:23.062Z,20.60
2023-03-06T00:47:50.294Z,20.50
2023-03-06T00:50:17.614Z,20.30
2023-03-06T00:52:44.712Z,20.10
2023-03-06T00:55:12.055Z,20.20
2023-03-06T00:57:39.234Z,20.50
2023-03-06T01:00:07.030Z,20.80
2023-03-06T01:02:34.240Z,21.10
2023-03-06T01:05:01.443Z,21.00
2023-03-06T01:07:28.702Z,20.50
2023-03-06T01:09:55.850Z,19.90
2023-03-06T01:12:23.648Z,19.70
2023-03-06T01:14:51.004Z,19.90
2023-03-06T01:17:18.203Z,20.10
2023-03-06T01:19:45.260Z,20.00
2023-03-06T01:22:12.348Z,19.50
2023-03-06T01:24:39.409Z,19.60
2023-03-06T01:27:06.500Z,19.80
2023-03-06T01:29:33.610Z,19.70
2023-03-06T01:32:00.766Z,19.90
2023-03-06T01:34:28.014Z,20.20
2023-03-06T01:36:55.127Z,20.30
2023-03-06T01:39:22.284Z,20.30
2023-03-06T01:41:49.431Z,20.20
2023-03-06T01:44:16.540Z,20.30
2023-03-06T01:46:45.186Z,20.80
2023-03-06T01:49:30.490Z,20.50
2023-03-06T01:52:10.311Z,20.50
2023-03-06T01:54:54.971Z,20.80
2023-03-06T01:57:26.148Z,20.90
2023-03-06T02:00:02.057Z,20.70
2023-03-06T02:02:29.623Z,20.70
2023-03-06T02:04:57.647Z,20.70
2023-03-06T02:07:25.711Z,20.60
2023-03-06T02:09:52.745Z,20.60
2023-03-06T02:12:21.816Z,20.80
2023-03-06T02:14:49.634Z,20.80
2023-03-06T02:17:19.821Z,20.80
2023-03-06T02:20:23.830Z,20.80
2023-03-06T02:23:10.744Z,20.70
2023-03-06T02:25:40.352Z,21.20
2023-03-06T02:28:10.138Z,20.90
2023-03-06T02:30:38.060Z,20.80
2023-03-06T02:33:05.937Z,20.50
2023-03-06T02:35:38.513Z,20.00
2023-03-06T02:38:10.733Z,19.80
2023-03-06T02:40:37.849Z,19.10
2023-03-06T02:43:05.038Z,18.70
2023-03-06T02:45:39.668Z,18.10
2023-03-06T02:48:07.164Z,17.90
2023-03-06T02:50:34.291Z,17.80
2023-03-06T02:53:01.459Z,17.50
2023-03-06T02:55:28.447Z,17.20
2023-03-06T02:57:55.478Z,17.00
2023-03-06T03:00:22.686Z,17.00
2023-03-06T03:02:49.742Z,16.90
2023-03-06T03:05:16.958Z,16.70
2023-03-06T03:07:44.401Z,16.70
2023-03-06T03:10:12.693Z,17.00
2023-03-06T03:12:39.831Z,17.10
2023-03-06T03:15:07.566Z,17.10
2023-03-06T03:17:39.140Z,16.90
2023-03-06T03:20:09.550Z,16.80
2023-03-06T03:22:36.939Z,16.60
2023-03-06T03:25:04.496Z,16.60
2023-03-06T03:27:31.648Z,16.50
2023-03-06T03:29:59.336Z,16.50
2023-03-06T03:32:26.878Z,16.40
2023-03-06T03:34:56.081Z,16.30
2023-03-06T03:37:23.337Z,16.30
2023-03-06T03:39:50.368Z,16.20
2023-03-06T03:42:17.475Z,16.20
2023-03-06T03:44:44.619Z,16.20
2023-03-06T03:47:11.680Z,16.10
2023-03-06T03:49:39.723Z,16.30
2023-03-06T03:52:06.799Z,16.50
2023-03-06T03:54:33.928Z,16.70
2023-03-06T03:57:01.181Z,16.90
2023-03-06T03:59:28.391Z,17.00
2023-03-06T04:01:56.128Z,17.20
2023-03-06T04:04:23.500Z,17.40
2023-03-06T04:06:50.597Z,17.70
2023-03-06T04:09:17.615Z,17.70
2023-03-06T04:11:44.715Z,17.80
2023-03-06T04:14:11.905Z,17.70
2023-03-06T04:16:38.904Z,17.70
2023-03-06T04:19:05.938Z,17.60
2023-03-06T04:21:33.087Z,17.30
2023-03-06T04:24:00.151Z,17.00
2023-03-06T04:26:27.158Z,16.80
2023-03-06T04:28:56.428Z,16.60
2023-03-06T04:31:23.541Z,16.50
2023-03-06T04:33:50.575Z,16.40
2023-03-06T04:36:27.244Z,16.40
2023-03-06T04:38:54.363Z,16.20
2023-03-06T04:41:22.035Z,16.20
2023-03-06T04:43:49.410Z,16.30
2023-03-06T04:46:16.996Z,16.70
2023-03-06T04:48:44.563Z,17.60
2023-03-06T04:51:15.477Z,17.80
2023-03-06T04:53:42.591Z,18.40
2023-03-06T04:56:09.793Z,18.90
2023-03-06T04:58:37.420Z,18.80
2023-03-06T05:01:04.582Z,19.00
2023-03-06T05:03:31.846Z,19.60
2023-03-06T05:05:58.992Z,19.30
2023-03-06T05:08:26.100Z,19.10
2023-03-06T05:11:01.320Z,19.00
2023-03-06T05:13:28.918Z,18.90
2023-03-06T05:16:01.231Z,18.80
2023-03-06T05:18:28.321Z,18.70
2023-03-06T05:20:59.533Z,19.20
2023-03-06T05:23:31.257Z,19.90
2023-03-06T05:25:59.040Z,20.20
2023-03-06T05:28:27.169Z,20.50
2023-03-06T05:30:54.257Z,20.70
2023-03-06T05:33:21.332Z,20.90
2023-03-06T05:35:49.340Z,21.10
2023-03-06T05:38:17.123Z,21.10
2023-03-06T05:40:45.018Z,20.40
2023-03-06T05:43:12.728Z,20.10
2023-03-06T05:45:40.721Z,20.00
2023-03-06T05:48:08.256Z,19.50
2023-03-06T05:50:35.430Z,19.50
2023-03-06T05:53:03.063Z,19.50
2023-03-06T05:55:30.228Z,19.80
2023-03-06T05:57:57.626Z,20.20
2023-03-06T06:00:26.196Z,20.10
2023-03-06T06:02:53.282Z,20.60
2023-03-06T06:05:20.678Z,20.50
2023-03-06T06:07:47.957Z,20.20
2023-03-06T06:10:15.403Z,20.10
2023-03-06T06:12:42.534Z,20.40
2023-03-06T06:15:10.394Z,20.40
2023-03-06T06:17:37.500Z,20.20
2023-03-06T06:20:06.147Z,20.60
2023-03-06T06:22:37.974Z,20.90
2023-03-06T06:25:06.497Z,21.50
2023-03-06T06:27:33.606Z,21.00
2023-03-06T06:30:00.722Z,20.60
2023-03-06T06:32:27.844Z,20.20
2023-03-06T06:34:55.101Z,19.90
2023-03-06T06:37:22.367Z,19.90
2023-03-06T06:39:49.423Z,19.80
2023-03-06T06:42:38.990Z,20.30
2023-03-06T06:45:05.453Z,19.90
2023-03-06T06:47:34.369Z,19.80
2023-03-06T06:50:01.582Z,20.10
2023-03-06T06:52:28.671Z,20.30
2023-03-06T06:54:55.883Z,20.30
2023-03-06T06:57:23.142Z,20.30
2023-03-06T06:59:52.427Z,20.10
2023-03-06T07:02:22.523Z,20.20
2023-03-06T07:05:03.088Z,20.80
2023-03-06T07:07:36.336Z,20.20
2023-03-06T07:10:07.586Z,19.70
2023-03-06T07:12:35.391Z,20.10
2023-03-06T07:15:03.158Z,20.50
2023-03-06T07:17:30.248Z,20.50
2023-03-06T07:19:57.391Z,20.60
2023-03-06T07:22:24.666Z,21.20
2023-03-06T07:24:51.927Z,21.70
2023-03-06T07:27:19.001Z,21.30
2023-03-06T07:29:46.255Z,21.10
2023-03-06T07:32:13.364Z,21.00
2023-03-06T07:34:40.645Z,21.40
2023-03-06T07:37:07.825Z,21.40
2023-03-06T07:39:35.289Z,22.00
2023-03-06T07:42:02.368Z,22.30
2023-03-06T07:44:29.605Z,22.30
2023-03-06T07:46:56.726Z,22.60
2023-03-06T07:49:23.821Z,22.30
2023-03-06T07:51:50.944Z,22.20
2023-03-06T07:54:17.985Z,21.80
2023-03-06T07:56:51.499Z,21.60
2023-03-06T07:59:18.926Z,21.30
2023-03-06T08:01:46.037Z,21.20
2023-03-06T08:04:13.206Z,20.90
2023-03-06T08:06:40.314Z,20.90
2023-03-06T08:09:08.140Z,20.70
2023-03-06T08:11:35.344Z,20.70
2023-03-06T08:14:02.577Z,20.30
2023-03-06T08:16:30.676Z,20.00
2023-03-06T08:18:58.550Z,19.60
2023-03-06T08:21:28.295Z,19.40
2023-03-06T08:23:55.678Z,19.70
2023-03-06T08:26:25.878Z,19.90
2023-03-06T08:28:54.134Z,20.20
2023-03-06T08:31:34.029Z,20.80
2023-03-06T08:34:04.546Z,20.80
2023-03-06T08:36:31.818Z,20.80
2023-03-06T08:38:59.437Z,20.60
2023-03-06T08:41:27.251Z,20.90
2023-03-06T08:43:54.588Z,20.80
2023-03-06T08:46:24.790Z,21.40
2023-03-06T08:48:52.221Z,21.70
2023-03-06T08:51:20.302Z,21.00
2023-03-06T08:53:47.922Z,20.70
2023-03-06T08:56:25.354Z,20.60
2023-03-06T08:58:53.087Z,20.50
2023-03-06T09:01:23.564Z,20.60
2023-03-06T09:03:51.041Z,20.70
2023-03-06T09:06:18.139Z,20.80
2023-03-06T09:08:45.170Z,20.70
2023-03-06T09:11:14.474Z,20.60
2023-03-06T09:13:42.673Z,19.60
2023-03-06T09:16:11.437Z,18.80
2023-03-06T09:18:38.541Z,18.60
2023-03-06T09:21:06.356Z,18.50
2023-03-06T09:23:34.151Z,18.70
2023-03-06T09:26:02.180Z,18.60
2023-03-06T09:28:29.615Z,18.40
2023-03-06T09:30:56.713Z,18.80
2023-03-06T09:33:24.312Z,18.30
2023-03-06T09:35:54.679Z,17.90
2023-03-06T09:38:24.985Z,17.30
2023-03-06T09:40:58.303Z,17.10
2023-03-06T09:43:47.214Z,17.80
2023-03-06T09:46:57.405Z,18.00
2023-03-06T09:49:48.903Z,18.20
2023-03-06T09:52:57.490Z,17.30
2023-03-06T09:55:32.463Z,17.00
2023-03-06T09:58:11.333Z,16.70
2023-03-06T10:00:43.374Z,16.00
2023-03-06T10:03:38.791Z,16.00
2023-03-06T10:06:18.520Z,15.70
2023-03-06T10:09:03.946Z,15.60
2023-03-06T10:11:43.183Z,16.60
2023-03-06T10:14:16.057Z,16.50
2023-03-06T10:16:43.222Z,16.20
2023-03-06T10:19:19.183Z,15.70
2023-03-06T10:22:22.860Z,15.30
2023-03-06T10:25:20.009Z,15.50
2023-03-06T10:28:16.279Z,15.60
2023-03-06T10:31:16.749Z,15.80
2023-03-06T10:33:51.543Z,15.80
2023-03-06T10:36:20.726Z,15.50
2023-03-06T10:38:49.105Z,15.80
2023-03-06T10:41:21.895Z,16.20
2023-03-06T10:44:01.108Z,16.40
2023-03-06T10:46:36.542Z,16.20
2023-03-06T10:49:25.301Z,15.40
2023-03-06T10:52:22.368Z,15.40
2023-03-06T10:54:49.466Z,15.00
2023-03-06T10:57:25.475Z,15.00
2023-03-06T10:59:55.838Z,15.10
2023-03-06T11:02:33.156Z,15.60
2023-03-06T11:05:01.620Z,15.70
2023-03-06T11:07:34.136Z,15.50
2023-03-06T11:10:23.418Z,16.60
2023-03-06T11:13:22.362Z,17.60
2023-03-06T11:15:57.048Z,18.30
2023-03-06T11:18:57.282Z,18.60
2023-03-06T11:21:31.832Z,18.30
2023-03-06T11:24:07.691Z,18.40
2023-03-06T11:26:41.158Z,18.10
2023-03-06T11:29:38.467Z,18.20
2023-03-06T11:32:14.766Z,18.20
2023-03-06T11:34:52.397Z,17.30
2023-03-06T11:37:37.642Z,16.40
2023-03-06T11:40:13.482Z,16.30
2023-03-06T11:43:17.763Z,16.50
2023-03-06T11:46:05.129Z,16.10
2023-03-06T11:48:39.328Z,15.70
2023-03-06T11:51:19.094Z,15.50
2023-03-06T11:53:50.017Z,16.00
2023-03-06T11:56:22.268Z,16.50
2023-03-06T11:59:07.806Z,17.10
2023-03-06T12:01:53.564Z,17.20
2023-03-06T12:04:44.929Z,16.90
2023-03-06T12:07:11.820Z,17.40
2023-03-06T12:10:19.081Z,18.90
2023-03-06T12:12:58.213Z,18.80
2023-03-06T12:15:46.930Z,18.50
2023-03-06T12:18:32.479Z,17.90
2023-03-06T12:21:18.055Z,17.80
2023-03-06T12:24:11.070Z,18.10
2023-03-06T12:26:57.522Z,17.70
2023-03-06T12:30:09.542Z,17.00
2023-03-06T12:33:05.170Z,16.90
2023-03-06T12:36:12.988Z,16.30
2023-03-06T12:38:48.801Z,16.00
2023-03-06T12:41:33.578Z,16.60
2023-03-06T12:44:18.415Z,16.10
2023-03-06T12:47:05.249Z,15.60
2023-03-06T12:49:38.855Z,15.60
2023-03-06T12:52:08.187Z,15.70
2023-03-06T12:54:41.198Z,15.80
2023-03-06T12:57:09.683Z,16.20
2023-03-06T12:59:44.692Z,16.50
2023-03-06T13:02:40.900Z,16.40
2023-03-06T13:05:34.461Z,16.60
2023-03-06T13:08:31.789Z,16.10
2023-03-06T13:11:11.409Z,16.20
2023-03-06T13:13:47.899Z,16.10
2023-03-06T13:16:31.775Z,16.20
2023-03-06T13:19:04.774Z,16.10
2023-03-06T13:21:56.545Z,16.40
2023-03-06T13:24:28.019Z,16.90
2023-03-06T13:26:59.616Z,17.10
2023-03-06T13:29:38.661Z,17.10
2023-03-06T13:32:14.663Z,16.70
2023-03-06T13:34:48.690Z,16.60
2023-03-06T13:37:23.179Z,16.60
2023-03-06T13:39:55.949Z,16.40
2023-03-06T13:42:35.185Z,16.20
2023-03-06T13:45:38.893Z,16.00
2023-03-06T13:48:41.615Z,16.40
2023-03-06T13:51:31.984Z,16.80
2023-03-06T13:54:36.395Z,17.00
2023-03-06T13:57:06.428Z,17.00
2023-03-06T14:00:09.571Z,16.90
2023-03-06T14:03:10.734Z,17.20
2023-03-06T14:05:49.030Z,17.80
2023-03-06T14:08:33.317Z,18.10
2023-03-06T14:11:22.628Z,18.00
2023-03-06T14:13:54.093Z,17.80
2023-03-06T14:16:25.475Z,17.50
2023-03-06T14:18:55.502Z,17.50
2023-03-06T14:21:31.136Z,17.30
2023-03-06T14:24:04.663Z,17.00
2023-03-06T14:26:44.293Z,16.90
2023-03-06T14:29:26.398Z,16.60
2023-03-06T14:32:06.042Z,16.80
2023-03-06T14:34:41.122Z,16.80
2023-03-06T14:37:24.659Z,18.10
2023-03-06T14:39:52.453Z,18.40
2023-03-06T14:42:29.298Z,18.60
2023-03-06T14:45:06.679Z,18.40
2023-03-06T14:47:35.573Z,18.30
2023-03-06T14:50:21.935Z,18.50
2023-03-06T14:53:09.181Z,18.90
2023-03-06T14:55:37.050Z,19.20
2023-03-06T14:58:18.830Z,19.00
2023-03-06T15:00:50.411Z,20.10
2023-03-06T15:03:23.380Z,20.90
2023-03-06T15:05:51.364Z,20.70
2023-03-06T15:08:28.234Z,20.20
2023-03-06T15:11:06.301Z,20.00
2023-03-06T15:13:34.916Z,19.50
2023-03-06T15:16:24.870Z,19.50
2023-03-06T15:19:03.965Z,19.20
2023-03-06T15:21:38.658Z,19.20
2023-03-06T15:24:44.156Z,19.00
2023-03-06T15:27:26.790Z,19.00
2023-03-06T15:29:54.022Z,18.90
2023-03-06T15:32:33.652Z,19.70
2023-03-06T15:35:25.268Z,20.00
2023-03-06T15:37:52.890Z,20.20
2023-03-06T15:40:22.377Z,20.30
2023-03-06T15:42:50.262Z,20.00
2023-03-06T15:45:22.613Z,19.70
2023-03-06T15:47:52.799Z,19.90
2023-03-06T15:50:25.782Z,20.30
2023-03-06T15:52:53.267Z,20.20
2023-03-06T15:55:28.494Z,20.30
2023-03-06T15:58:02.201Z,20.40
2023-03-06T16:00:40.363Z,20.50
2023-03-06T16:03:10.089Z,20.60
2023-03-06T16:05:37.448Z,20.90
2023-03-06T16:08:05.544Z,21.90
2023-03-06T16:10:37.786Z,21.90
2023-03-06T16:13:15.990Z,22.00
2023-03-06T16:15:50.988Z,22.00
2023-03-06T16:18:19.426Z,21.30
2023-03-06T16:20:47.309Z,21.00
2023-03-06T16:23:15.551Z,20.60
2023-03-06T16:25:48.497Z,20.30
2023-03-06T16:28:16.971Z,20.40
2023-03-06T16:30:44.778Z,20.50
2023-03-06T16:33:13.174Z,20.50
2023-03-06T16:35:41.537Z,20.20
2023-03-06T16:38:09.996Z,19.70
2023-03-06T16:40:41.806Z,19.40
2023-03-06T16:43:10.695Z,19.20
2023-03-06T16:45:42.268Z,19.20
2023-03-06T16:48:15.879Z,19.10
2023-03-06T16:50:43.513Z,19.30
2023-03-06T16:53:10.785Z,19.20
2023-03-06T16:55:39.528Z,19.20
2023-03-06T16:58:08.772Z,19.30
2023-03-06T17:00:35.940Z,19.40
2023-03-06T17:03:03.110Z,19.70
2023-03-06T17:05:34.136Z,19.60
2023-03-06T17:08:01.446Z,19.40
2023-03-06T17:10:28.646Z,19.30
2023-03-06T17:12:56.886Z,19.30
2023-03-06T17:15:24.617Z,19.20
2023-03-06T17:17:53.261Z,19.20
2023-03-06T17:20:20.717Z,19.20
2023-03-06T17:22:47.837Z,19.20
2023-03-06T17:25:15.069Z,19.20
2023-03-06T17:27:42.116Z,19.10
2023-03-06T17:30:10.036Z,19.10
2023-03-06T17:32:40.065Z,19.10
2023-03-06T17:35:09.402Z,19.10
2023-03-06T17:37:36.767Z,19.20
2023-03-06T17:40:04.260Z,19.10
2023-03-06T17:42:32.646Z,19.20
2023-03-06T17:44:59.748Z,19.20
2023-03-06T17:47:26.910Z,19.20
2023-03-06T17:49:54.115Z,19.40
2023-03-06T17:52:21.269Z,19.70
2023-03-06T17:54:48.267Z,20.00
2023-03-06T17:57:15.287Z,19.80
2023-03-06T17:59:46.927Z,19.70
2023-03-06T18:02:14.293Z,19.60
2023-03-06T18:04:41.706Z,19.50
2023-03-06T18:07:10.385Z,19.30
2023-03-06T18:09:43.095Z,19.40
2023-03-06T18:12:12.742Z,19.40
2023-03-06T18:14:42.094Z,19.30
2023-03-06T18:17:09.201Z,19.20
2023-03-06T18:19:36.195Z,19.20
2023-03-06T18:22:03.598Z,19.20
2023-03-06T18:24:30.709Z,19.20
2023-03-06T18:26:58.625Z,19.20
2023-03-06T18:29:26.022Z,19.20
2023-03-06T18:31:55.299Z,19.10
2023-03-06T18:34:25.229Z,19.10
2023-03-06T18:36:53.168Z,19.10
2023-03-06T18:39:21.492Z,19.10
2023-03-06T18:41:51.893Z,19.00
2023-03-06T18:44:19.140Z,18.90
2023-03-06T18:46:46.474Z,18.80
2023-03-06T18:49:16.133Z,18.70
2023-03-06T18:51:43.348Z,18.70
2023-03-06T18:54:11.459Z,18.80
2023-03-06T18:56:39.908Z,19.00
2023-03-06T18:59:08.249Z,19.00
2023-03-06T19:01:35.649Z,18.90
2023-03-06T19:04:04.048Z,19.00
2023-03-06T19:06:31.859Z,18.90
2023-03-06T19:08:59.048Z,18.90
2023-03-06T19:11:27.481Z,18.90
2023-03-06T19:13:55.321Z,18.80
2023-03-06T19:16:25.729Z,18.70
2023-03-06T19:18:55.520Z,18.60
2023-03-06T19:21:24.715Z,18.60
2023-03-06T19:23:52.169Z,18.50
2023-03-06T19:26:20.443Z,18.60
2023-03-06T19:28:48.279Z,18.60
2023-03-06T19:31:19.563Z,18.50
2023-03-06T19:33:48.416Z,18.40
2023-03-06T19:36:17.461Z,18.40
2023-03-06T19:38:44.776Z,18.50
2023-03-06T19:41:14.022Z,18.40
2023-03-06T19:43:43.080Z,18.40
2023-03-06T19:46:16.484Z,18.40
2023-03-06T19:48:43.650Z,18.90
2023-03-06T19:51:11.605Z,18.80
2023-03-06T19:53:40.097Z,19.00
2023-03-06T19:56:11.683Z,19.20
2023-03-06T19:58:40.792Z,19.40
2023-03-06T20:01:14.239Z,19.70
2023-03-06T20:03:42.523Z,19.60
2023-03-06T20:06:15.795Z,19.60
2023-03-06T20:08:43.735Z,19.70
2023-03-06T20:11:24.010Z,19.80
2023-03-06T20:13:51.529Z,20.10
2023-03-06T20:16:19.082Z,19.70
2023-03-06T20:18:46.326Z,19.70
2023-03-06T20:21:14.131Z,19.80
2023-03-06T20:23:41.948Z,20.30
2023-03-06T20:26:12.119Z,20.70
2023-03-06T20:28:40.952Z,20.60
2023-03-06T20:31:13.745Z,20.60
2023-03-06T20:33:40.861Z,20.80
2023-03-06T20:36:18.722Z,20.90
2023-03-06T20:38:46.263Z,21.20
2023-03-06T20:41:22.436Z,21.60
2023-03-06T20:43:52.704Z,22.20
2023-03-06T20:46:21.394Z,22.40
2023-03-06T20:48:52.987Z,22.00
2023-03-06T20:51:31.788Z,21.70
2023-03-06T20:54:00.977Z,21.50
2023-03-06T20:56:32.589Z,21.80
2023-03-06T20:59:02.433Z,21.90
2023-03-06T21:01:38.514Z,22.60
2023-03-06T21:04:05.739Z,22.20
2023-03-06T21:06:33.694Z,22.30
2023-03-06T21:09:01.707Z,22.70
2023-03-06T21:11:32.437Z,22.90
2023-03-06T21:14:00.969Z,22.70
2023-03-06T21:16:30.390Z,22.90
2023-03-06T21:18:59.821Z,22.80
2023-03-06T21:21:30.595Z,22.60
2023-03-06T21:23:58.525Z,22.80
2023-03-06T21:26:29.006Z,22.60
2023-03-06T21:29:00.051Z,21.90
2023-03-06T21:31:28.547Z,21.20
2023-03-06T21:33:56.972Z,21.50
2023-03-06T21:36:24.153Z,21.80
2023-03-06T21:38:52.481Z,21.60
2023-03-06T21:41:26.378Z,21.70
2023-03-06T21:44:01.773Z,22.00
2023-03-06T21:46:30.028Z,21.90
2023-03-06T21:48:58.912Z,22.10
2023-03-06T21:51:26.862Z,22.00
2023-03-06T21:53:55.082Z,22.30
2023-03-06T21:56:25.107Z,22.10
2023-03-06T21:58:52.934Z,21.80
2023-03-06T22:01:23.730Z,21.70
2023-03-06T22:03:51.418Z,21.50
2023-03-06T22:06:21.697Z,21.10
2023-03-06T22:08:48.958Z,20.80
2023-03-06T22:11:21.808Z,20.80
2023-03-06T22:13:50.069Z,20.60
2023-03-06T22:16:17.749Z,20.50
2023-03-06T22:18:46.383Z,20.80
2023-03-06T22:21:16.842Z,21.10
2023-03-06T22:23:44.478Z,21.20
2023-03-06T22:26:13.671Z,21.00
2023-03-06T22:28:42.227Z,20.80
2023-03-06T22:31:15.598Z,20.20
2023-03-06T22:33:43.091Z,20.20
2023-03-06T22:36:13.286Z,20.20
2023-03-06T22:38:42.644Z,20.40
2023-03-06T22:41:10.866Z,20.60
2023-03-06T22:43:38.268Z,20.60
2023-03-06T22:46:11.172Z,20.60
2023-03-06T22:48:38.648Z,20.50
2023-03-06T22:51:09.421Z,20.40
2023-03-06T22:53:36.882Z,21.10
2023-03-06T22:56:06.431Z,20.40
2023-03-06T22:58:37.305Z,20.50
2023-03-06T23:01:06.083Z,20.90
2023-03-06T23:03:33.382Z,21.20
2023-03-06T23:06:00.519Z,20.90
2023-03-06T23:08:27.506Z,20.80
2023-03-06T23:10:54.620Z,20.90
2023-03-06T23:13:22.221Z,21.00
2023-03-06T23:15:49.476Z,21.60
2023-03-06T23:18:16.546Z,21.60
2023-03-06T23:20:44.153Z,21.60
2023-03-06T23:23:11.702Z,21.70
2023-03-06T23:25:39.489Z,21.20
2023-03-06T23:28:07.465Z,21.20
2023-03-06T23:30:34.615Z,21.00
2023-03-06T23:33:01.621Z,20.60
2023-03-06T23:35:28.924Z,20.20
2023-03-06T23:37:56.525Z,19.80
2023-03-06T23:40:23.788Z,19.70
2023-03-06T23:42:50.862Z,20.10
2023-03-06T23:45:18.543Z,20.30
2023-03-06T23:47:45.780Z,20.60
2023-03-06T23:50:13.314Z,21.00
2023-03-06T23:52:41.003Z,21.00
2023-03-06T23:55:09.006Z,21.50
2023-03-06T23:57:36.274Z,21.90
